Main page
METAR-TAF:

METAR-TAF

Airports :

Farnborough Airport

Farnborough, England

latitude: 51-17N, longitude: 000-46W, elevation: 65 m

Current weather observation

The report was made 23 minutes ago, at 12:20 UTC
Wind 13 kt from the South/Southeast, varying between East/Southeast and South
Temperature 19°C
Humidity 37%
Pressure 1012 hPa
Visibility 10 km or more

METAR: EGLF 051220Z AUTO 15013KT 120V180 9999 NCD 19/04 Q1012

Time: 13:43 (12:43 UTC)

Forecast

The report was made 1 hour and 44 minutes ago, at 10:59 UTC
Forecast valid from 05 at 12 UTC to 05 at 19 UTC
Wind 12 kt from the South/Southeast
Visibility 10 km or more
no clouds below 1500 m and no cumulonimbus
Temporary
from 05 at 12 UTC to 05 at 19 UTC
Wind 15 kt from the South/Southeast with gusts up to 25 kt

TAF: EGLF 051059Z 0512/0519 15012KT CAVOK TEMPO 0512/0519 16015G25KT

Weather observations and forecasts of more than 4000 airports (METAR and TAF reports).

The available stations are represented by yellow and red dots on the map.

Hover mouse over dot to see the name of the station.

Then click to see weather observations and forecasts.

To change the map : click on the green buttons with a black cross to zoom in, on the green button with a dash to zoom out, or on the green arrows for adjacent maps.


METAR-TAF: